sensor_id;sensor_type;location;lat;lon;timestamp;temperature;humidity
42905;DHT22;28550;51.228;4.528;2023-04-03T00:02:54;2.00;99.90
42905;DHT22;28550;51.228;4.528;2023-04-03T00:05:26;2.10;99.90
42905;DHT22;28550;51.228;4.528;2023-04-03T00:07:52;2.10;99.90
42905;DHT22;28550;51.228;4.528;2023-04-03T00:10:19;2.20;99.90
42905;DHT22;28550;51.228;4.528;2023-04-03T00:12:47;2.10;99.90
42905;DHT22;28550;51.228;4.528;2023-04-03T00:15:16;2.20;99.90
42905;DHT22;28550;51.228;4.528;2023-04-03T00:17:51;2.10;99.90
42905;DHT22;28550;51.228;4.528;2023-04-03T00:20:20;2.20;99.90
42905;DHT22;28550;51.228;4.528;2023-04-03T00:22:49;2.20;99.90
42905;DHT22;28550;51.228;4.528;2023-04-03T00:26:01;2.10;99.90
42905;DHT22;28550;51.228;4.528;2023-04-03T00:28:28;2.20;99.90
42905;DHT22;28550;51.228;4.528;2023-04-03T00:31:01;2.20;99.90
42905;DHT22;28550;51.228;4.528;2023-04-03T00:33:30;2.30;99.90
42905;DHT22;28550;51.228;4.528;2023-04-03T00:35:58;2.40;99.90
42905;DHT22;28550;51.228;4.528;2023-04-03T00:38:24;2.30;99.90
42905;DHT22;28550;51.228;4.528;2023-04-03T00:40:52;2.30;99.90
42905;DHT22;28550;51.228;4.528;2023-04-03T00:43:25;2.40;99.90
42905;DHT22;28550;51.228;4.528;2023-04-03T00:46:08;2.30;99.90
42905;DHT22;28550;51.228;4.528;2023-04-03T00:48:57;2.30;99.90
42905;DHT22;28550;51.228;4.528;2023-04-03T00:54:48;2.20;99.90
42905;DHT22;28550;51.228;4.528;2023-04-03T00:57:58;2.30;99.90
42905;DHT22;28550;51.228;4.528;2023-04-03T01:00:30;2.30;99.90
42905;DHT22;28550;51.228;4.528;2023-04-03T01:03:02;2.30;99.90
42905;DHT22;28550;51.228;4.528;2023-04-03T01:05:31;2.20;99.90
42905;DHT22;28550;51.228;4.528;2023-04-03T01:07:58;2.20;99.90
42905;DHT22;28550;51.228;4.528;2023-04-03T01:10:24;2.30;99.90
42905;DHT22;28550;51.228;4.528;2023-04-03T01:12:53;2.20;99.90
42905;DHT22;28550;51.228;4.528;2023-04-03T01:15:30;2.20;99.90
42905;DHT22;28550;51.228;4.528;2023-04-03T01:18:00;2.30;99.90
42905;DHT22;28550;51.228;4.528;2023-04-03T01:25:47;2.50;99.90
42905;DHT22;28550;51.228;4.528;2023-04-03T01:28:22;2.30;99.90
42905;DHT22;28550;51.228;4.528;2023-04-03T01:33:38;2.30;99.90
42905;DHT22;28550;51.228;4.528;2023-04-03T01:36:43;2.20;99.90
42905;DHT22;28550;51.228;4.528;2023-04-03T01:39:11;2.30;99.90
42905;DHT22;28550;51.228;4.528;2023-04-03T01:41:43;2.30;99.90
42905;DHT22;28550;51.228;4.528;2023-04-03T01:44:09;2.30;99.90
42905;DHT22;28550;51.228;4.528;2023-04-03T01:46:40;2.30;99.90
42905;DHT22;28550;51.228;4.528;2023-04-03T01:49:09;2.30;99.90
42905;DHT22;28550;51.228;4.528;2023-04-03T01:57:01;2.20;99.90
42905;DHT22;28550;51.228;4.528;2023-04-03T01:59:27;2.30;99.90
42905;DHT22;28550;51.228;4.528;2023-04-03T02:01:53;2.30;99.90
42905;DHT22;28550;51.228;4.528;2023-04-03T02:04:19;2.20;99.90
42905;DHT22;28550;51.228;4.528;2023-04-03T02:06:56;2.20;99.90
42905;DHT22;28550;51.228;4.528;2023-04-03T02:09:25;2.20;99.90
42905;DHT22;28550;51.228;4.528;2023-04-03T02:11:56;2.10;99.90
42905;DHT22;28550;51.228;4.528;2023-04-03T02:14:27;2.10;99.90
42905;DHT22;28550;51.228;4.528;2023-04-03T02:17:09;2.20;99.90
42905;DHT22;28550;51.228;4.528;2023-04-03T02:19:45;2.10;99.90
42905;DHT22;28550;51.228;4.528;2023-04-03T02:22:16;2.20;99.90
42905;DHT22;28550;51.228;4.528;2023-04-03T02:25:02;2.00;99.90
42905;DHT22;28550;51.228;4.528;2023-04-03T02:27:36;2.00;99.90
42905;DHT22;28550;51.228;4.528;2023-04-03T02:30:05;2.00;99.90
42905;DHT22;28550;51.228;4.528;2023-04-03T02:32:37;1.90;99.90
42905;DHT22;28550;51.228;4.528;2023-04-03T02:35:04;1.90;99.90
42905;DHT22;28550;51.228;4.528;2023-04-03T02:40:32;1.80;99.90
42905;DHT22;28550;51.228;4.528;2023-04-03T02:43:10;1.80;99.90
42905;DHT22;28550;51.228;4.528;2023-04-03T02:45:43;1.70;99.90
42905;DHT22;28550;51.228;4.528;2023-04-03T02:48:17;1.80;99.90
42905;DHT22;28550;51.228;4.528;2023-04-03T02:50:50;1.80;99.90
42905;DHT22;28550;51.228;4.528;2023-04-03T02:56:44;1.80;99.90
42905;DHT22;28550;51.228;4.528;2023-04-03T03:00:06;1.70;99.90
42905;DHT22;28550;51.228;4.528;2023-04-03T03:02:25;1.70;99.90
42905;DHT22;28550;51.228;4.528;2023-04-03T03:04:53;1.70;99.90
42905;DHT22;28550;51.228;4.528;2023-04-03T03:07:26;1.70;99.90
42905;DHT22;28550;51.228;4.528;2023-04-03T03:10:02;1.70;99.90
42905;DHT22;28550;51.228;4.528;2023-04-03T03:12:30;1.60;99.90
42905;DHT22;28550;51.228;4.528;2023-04-03T03:17:25;1.40;99.90
42905;DHT22;28550;51.228;4.528;2023-04-03T03:20:11;1.40;99.90
42905;DHT22;28550;51.228;4.528;2023-04-03T03:22:46;1.40;99.90
42905;DHT22;28550;51.228;4.528;2023-04-03T03:25:13;1.50;99.90
42905;DHT22;28550;51.228;4.528;2023-04-03T03:27:47;1.40;99.90
42905;DHT22;28550;51.228;4.528;2023-04-03T03:30:20;1.40;99.90
42905;DHT22;28550;51.228;4.528;2023-04-03T03:32:48;1.40;99.90
42905;DHT22;28550;51.228;4.528;2023-04-03T03:35:26;1.40;99.90
42905;DHT22;28550;51.228;4.528;2023-04-03T03:38:29;1.40;99.90
42905;DHT22;28550;51.228;4.528;2023-04-03T03:41:04;1.40;99.90
42905;DHT22;28550;51.228;4.528;2023-04-03T03:43:40;1.50;99.90
42905;DHT22;28550;51.228;4.528;2023-04-03T03:46:16;1.50;99.90
42905;DHT22;28550;51.228;4.528;2023-04-03T03:48:53;1.40;99.90
42905;DHT22;28550;51.228;4.528;2023-04-03T03:51:32;1.30;99.90
42905;DHT22;28550;51.228;4.528;2023-04-03T03:54:06;1.40;99.90
42905;DHT22;28550;51.228;4.528;2023-04-03T03:56:38;1.40;99.90
42905;DHT22;28550;51.228;4.528;2023-04-03T03:59:11;1.40;99.90
42905;DHT22;28550;51.228;4.528;2023-04-03T04:01:42;1.50;99.90
42905;DHT22;28550;51.228;4.528;2023-04-03T04:04:10;1.50;99.90
42905;DHT22;28550;51.228;4.528;2023-04-03T04:06:36;1.70;99.90
42905;DHT22;28550;51.228;4.528;2023-04-03T04:09:04;1.50;99.90
42905;DHT22;28550;51.228;4.528;2023-04-03T04:14:08;1.40;99.90
42905;DHT22;28550;51.228;4.528;2023-04-03T04:16:39;1.50;99.90
42905;DHT22;28550;51.228;4.528;2023-04-03T04:19:13;1.60;99.90
42905;DHT22;28550;51.228;4.528;2023-04-03T04:21:46;1.50;99.90
42905;DHT22;28550;51.228;4.528;2023-04-03T04:24:21;1.50;99.90
42905;DHT22;28550;51.228;4.528;2023-04-03T04:26:56;1.50;99.90
42905;DHT22;28550;51.228;4.528;2023-04-03T04:29:24;1.50;99.90
42905;DHT22;28550;51.228;4.528;2023-04-03T04:32:07;1.40;99.90
42905;DHT22;28550;51.228;4.528;2023-04-03T04:34:44;1.30;99.90
42905;DHT22;28550;51.228;4.528;2023-04-03T04:37:23;1.40;99.90
42905;DHT22;28550;51.228;4.528;2023-04-03T04:39:52;1.40;99.90
42905;DHT22;28550;51.228;4.528;2023-04-03T04:42:28;1.50;99.90
42905;DHT22;28550;51.228;4.528;2023-04-03T04:45:03;1.50;99.90
42905;DHT22;28550;51.228;4.528;2023-04-03T04:47:29;1.50;99.90
42905;DHT22;28550;51.228;4.528;2023-04-03T04:49:56;1.50;99.90
42905;DHT22;28550;51.228;4.528;2023-04-03T04:52:24;1.50;99.90
42905;DHT22;28550;51.228;4.528;2023-04-03T04:54:49;1.40;99.90
42905;DHT22;28550;51.228;4.528;2023-04-03T04:57:20;1.40;99.90
42905;DHT22;28550;51.228;4.528;2023-04-03T04:59:51;1.30;99.90
42905;DHT22;28550;51.228;4.528;2023-04-03T05:02:19;1.40;99.90
42905;DHT22;28550;51.228;4.528;2023-04-03T05:04:52;1.30;99.90
42905;DHT22;28550;51.228;4.528;2023-04-03T05:07:24;1.40;99.90
42905;DHT22;28550;51.228;4.528;2023-04-03T05:09:54;1.40;99.90
42905;DHT22;28550;51.228;4.528;2023-04-03T05:12:22;1.30;99.90
42905;DHT22;28550;51.228;4.528;2023-04-03T05:15:06;1.40;99.90
42905;DHT22;28550;51.228;4.528;2023-04-03T05:17:35;1.40;99.90
42905;DHT22;28550;51.228;4.528;2023-04-03T05:20:02;1.40;99.90
42905;DHT22;28550;51.228;4.528;2023-04-03T05:22:37;1.40;99.90
42905;DHT22;28550;51.228;4.528;2023-04-03T05:25:09;1.40;99.90
42905;DHT22;28550;51.228;4.528;2023-04-03T05:27:45;1.50;99.90
42905;DHT22;28550;51.228;4.528;2023-04-03T05:30:16;1.50;99.90
42905;DHT22;28550;51.228;4.528;2023-04-03T05:32:45;1.60;99.90
42905;DHT22;28550;51.228;4.528;2023-04-03T05:35:13;1.60;99.90
42905;DHT22;28550;51.228;4.528;2023-04-03T05:37:42;1.70;99.90
42905;DHT22;28550;51.228;4.528;2023-04-03T05:42:45;1.70;99.90
42905;DHT22;28550;51.228;4.528;2023-04-03T05:51:32;1.80;99.90
42905;DHT22;28550;51.228;4.528;2023-04-03T05:54:24;2.00;99.90
42905;DHT22;28550;51.228;4.528;2023-04-03T05:56:50;2.00;99.90
42905;DHT22;28550;51.228;4.528;2023-04-03T05:59:17;2.00;99.90
42905;DHT22;28550;51.228;4.528;2023-04-03T06:01:45;2.10;99.90
42905;DHT22;28550;51.228;4.528;2023-04-03T06:04:29;2.30;99.90
42905;DHT22;28550;51.228;4.528;2023-04-03T06:10:03;2.30;99.90
42905;DHT22;28550;51.228;4.528;2023-04-03T06:12:29;2.40;99.90
42905;DHT22;28550;51.228;4.528;2023-04-03T06:14:56;2.50;99.90
42905;DHT22;28550;51.228;4.528;2023-04-03T06:17:29;2.70;99.90
42905;DHT22;28550;51.228;4.528;2023-04-03T06:20:21;2.70;99.90
42905;DHT22;28550;51.228;4.528;2023-04-03T06:23:10;3.10;99.90
42905;DHT22;28550;51.228;4.528;2023-04-03T06:25:37;3.50;99.90
42905;DHT22;28550;51.228;4.528;2023-04-03T06:28:23;3.80;99.90
42905;DHT22;28550;51.228;4.528;2023-04-03T06:31:00;4.20;99.00
42905;DHT22;28550;51.228;4.528;2023-04-03T06:33:48;4.60;95.50
42905;DHT22;28550;51.228;4.528;2023-04-03T06:36:26;4.80;93.20
42905;DHT22;28550;51.228;4.528;2023-04-03T06:39:18;5.10;94.10
42905;DHT22;28550;51.228;4.528;2023-04-03T06:41:55;5.10;70.20
42905;DHT22;28550;51.228;4.528;2023-04-03T06:44:51;5.20;52.30
42905;DHT22;28550;51.228;4.528;2023-04-03T06:47:44;5.30;71.10
42905;DHT22;28550;51.228;4.528;2023-04-03T06:50:27;5.80;62.60
42905;DHT22;28550;51.228;4.528;2023-04-03T06:53:01;6.20;19.60
42905;DHT22;28550;51.228;4.528;2023-04-03T06:55:37;6.30;29.00
42905;DHT22;28550;51.228;4.528;2023-04-03T06:58:12;6.60;1.00
42905;DHT22;28550;51.228;4.528;2023-04-03T07:00:52;6.80;1.00
42905;DHT22;28550;51.228;4.528;2023-04-03T07:11:31;8.00;1.00
42905;DHT22;28550;51.228;4.528;2023-04-03T07:14:18;8.10;99.90
42905;DHT22;28550;51.228;4.528;2023-04-03T07:17:02;8.00;99.90
42905;DHT22;28550;51.228;4.528;2023-04-03T07:19:40;8.00;1.00
42905;DHT22;28550;51.228;4.528;2023-04-03T07:32:14;9.40;99.90
42905;DHT22;28550;51.228;4.528;2023-04-03T07:34:40;9.50;99.90
42905;DHT22;28550;51.228;4.528;2023-04-03T07:37:06;10.10;1.00
42905;DHT22;28550;51.228;4.528;2023-04-03T07:39:58;10.00;1.00
42905;DHT22;28550;51.228;4.528;2023-04-03T07:42:25;10.20;94.10
42905;DHT22;28550;51.228;4.528;2023-04-03T07:44:54;10.20;99.90
42905;DHT22;28550;51.228;4.528;2023-04-03T07:47:45;10.60;99.90
42905;DHT22;28550;51.228;4.528;2023-04-03T07:54:31;11.30;1.00
42905;DHT22;28550;51.228;4.528;2023-04-03T08:12:26;12.50;99.90
42905;DHT22;28550;51.228;4.528;2023-04-03T08:15:27;13.50;99.90
42905;DHT22;28550;51.228;4.528;2023-04-03T08:17:53;13.30;1.00
42905;DHT22;28550;51.228;4.528;2023-04-03T08:27:42;12.20;1.00
42905;DHT22;28550;51.228;4.528;2023-04-03T08:31:16;13.20;1.00
42905;DHT22;28550;51.228;4.528;2023-04-03T08:34:06;13.60;99.90
42905;DHT22;28550;51.228;4.528;2023-04-03T08:46:40;15.30;1.00
42905;DHT22;28550;51.228;4.528;2023-04-03T09:17:59;15.70;1.00
42905;DHT22;28550;51.228;4.528;2023-04-03T09:24:09;16.70;1.00
42905;DHT22;28550;51.228;4.528;2023-04-03T09:30:30;18.20;1.00
42905;DHT22;28550;51.228;4.528;2023-04-03T09:37:05;16.10;1.00
42905;DHT22;28550;51.228;4.528;2023-04-03T09:39:54;16.60;1.00
42905;DHT22;28550;51.228;4.528;2023-04-03T09:54:52;18.00;1.00
42905;DHT22;28550;51.228;4.528;2023-04-03T09:57:18;17.60;1.00
42905;DHT22;28550;51.228;4.528;2023-04-03T10:03:37;17.70;1.00
42905;DHT22;28550;51.228;4.528;2023-04-03T10:09:57;18.40;1.00
42905;DHT22;28550;51.228;4.528;2023-04-03T10:22:01;17.50;1.00
42905;DHT22;28550;51.228;4.528;2023-04-03T10:28:35;19.00;1.00
42905;DHT22;28550;51.228;4.528;2023-04-03T10:46:13;19.80;99.90
42905;DHT22;28550;51.228;4.528;2023-04-03T10:49:06;19.20;99.90
42905;DHT22;28550;51.228;4.528;2023-04-03T10:54:20;18.80;99.90
42905;DHT22;28550;51.228;4.528;2023-04-03T11:00:13;17.50;99.90
42905;DHT22;28550;51.228;4.528;2023-04-03T11:02:56;17.70;99.90
42905;DHT22;28550;51.228;4.528;2023-04-03T11:05:51;18.50;99.90
42905;DHT22;28550;51.228;4.528;2023-04-03T11:08:59;18.50;99.90
42905;DHT22;28550;51.228;4.528;2023-04-03T11:14:35;18.60;99.90
42905;DHT22;28550;51.228;4.528;2023-04-03T11:26:38;19.00;1.00
42905;DHT22;28550;51.228;4.528;2023-04-03T11:29:48;18.60;99.90
42905;DHT22;28550;51.228;4.528;2023-04-03T11:35:51;18.80;1.00
42905;DHT22;28550;51.228;4.528;2023-04-03T11:38:49;19.30;1.00
42905;DHT22;28550;51.228;4.528;2023-04-03T11:44:39;17.50;1.00
42905;DHT22;28550;51.228;4.528;2023-04-03T11:47:47;16.90;1.00
42905;DHT22;28550;51.228;4.528;2023-04-03T11:55:53;19.00;1.00
42905;DHT22;28550;51.228;4.528;2023-04-03T12:01:47;20.10;1.00
42905;DHT22;28550;51.228;4.528;2023-04-03T12:04:14;18.60;1.00
42905;DHT22;28550;51.228;4.528;2023-04-03T12:09:58;19.50;1.00
42905;DHT22;28550;51.228;4.528;2023-04-03T12:12:36;19.70;1.00
42905;DHT22;28550;51.228;4.528;2023-04-03T12:16:05;19.90;43.50
42905;DHT22;28550;51.228;4.528;2023-04-03T12:22:14;20.10;99.90
42905;DHT22;28550;51.228;4.528;2023-04-03T12:28:09;19.40;99.90
42905;DHT22;28550;51.228;4.528;2023-04-03T12:30:58;19.90;99.90
42905;DHT22;28550;51.228;4.528;2023-04-03T12:51:49;20.80;99.90
42905;DHT22;28550;51.228;4.528;2023-04-03T12:54:40;21.00;99.90
42905;DHT22;28550;51.228;4.528;2023-04-03T12:57:19;20.70;1.00
42905;DHT22;28550;51.228;4.528;2023-04-03T13:02:49;20.80;99.90
42905;DHT22;28550;51.228;4.528;2023-04-03T13:11:25;21.50;99.90
42905;DHT22;28550;51.228;4.528;2023-04-03T13:14:17;21.60;99.90
42905;DHT22;28550;51.228;4.528;2023-04-03T13:17:16;21.90;99.90
42905;DHT22;28550;51.228;4.528;2023-04-03T13:20:16;21.40;99.90
42905;DHT22;28550;51.228;4.528;2023-04-03T13:23:08;21.80;99.90
42905;DHT22;28550;51.228;4.528;2023-04-03T13:25:47;21.10;99.90
42905;DHT22;28550;51.228;4.528;2023-04-03T13:28:56;21.00;99.90
42905;DHT22;28550;51.228;4.528;2023-04-03T13:31:26;21.30;99.90
42905;DHT22;28550;51.228;4.528;2023-04-03T13:33:55;21.20;99.90
42905;DHT22;28550;51.228;4.528;2023-04-03T13:37:11;20.70;99.90
42905;DHT22;28550;51.228;4.528;2023-04-03T13:40:12;21.30;99.90
42905;DHT22;28550;51.228;4.528;2023-04-03T13:43:25;22.90;99.90
42905;DHT22;28550;51.228;4.528;2023-04-03T13:51:58;21.70;99.90
42905;DHT22;28550;51.228;4.528;2023-04-03T13:54:47;21.40;99.90
42905;DHT22;28550;51.228;4.528;2023-04-03T13:57:48;21.20;99.90
42905;DHT22;28550;51.228;4.528;2023-04-03T14:00:31;20.60;99.90
42905;DHT22;28550;51.228;4.528;2023-04-03T14:03:33;20.40;99.90
42905;DHT22;28550;51.228;4.528;2023-04-03T14:06:16;21.90;99.90
42905;DHT22;28550;51.228;4.528;2023-04-03T14:08:55;22.50;99.90
42905;DHT22;28550;51.228;4.528;2023-04-03T14:11:29;21.60;99.90
42905;DHT22;28550;51.228;4.528;2023-04-03T14:14:00;21.50;99.90
42905;DHT22;28550;51.228;4.528;2023-04-03T14:16:32;21.50;99.90
42905;DHT22;28550;51.228;4.528;2023-04-03T14:19:04;21.00;99.90
42905;DHT22;28550;51.228;4.528;2023-04-03T14:21:31;20.50;99.90
42905;DHT22;28550;51.228;4.528;2023-04-03T14:24:00;20.60;99.90
42905;DHT22;28550;51.228;4.528;2023-04-03T14:26:27;20.90;99.90
42905;DHT22;28550;51.228;4.528;2023-04-03T14:32:15;21.50;99.90
42905;DHT22;28550;51.228;4.528;2023-04-03T14:40:53;21.10;99.90
42905;DHT22;28550;51.228;4.528;2023-04-03T14:43:22;20.60;99.90
42905;DHT22;28550;51.228;4.528;2023-04-03T14:45:49;20.50;99.90
42905;DHT22;28550;51.228;4.528;2023-04-03T14:48:22;19.40;99.90
42905;DHT22;28550;51.228;4.528;2023-04-03T14:50:49;18.80;99.90
42905;DHT22;28550;51.228;4.528;2023-04-03T14:53:16;19.10;99.90
42905;DHT22;28550;51.228;4.528;2023-04-03T14:55:48;19.40;99.90
42905;DHT22;28550;51.228;4.528;2023-04-03T14:58:21;19.00;99.90
42905;DHT22;28550;51.228;4.528;2023-04-03T15:00:50;19.30;99.90
42905;DHT22;28550;51.228;4.528;2023-04-03T15:03:28;19.40;99.90
42905;DHT22;28550;51.228;4.528;2023-04-03T15:06:30;19.10;99.90
42905;DHT22;28550;51.228;4.528;2023-04-03T15:09:00;19.40;99.90
42905;DHT22;28550;51.228;4.528;2023-04-03T15:11:28;19.90;99.90
42905;DHT22;28550;51.228;4.528;2023-04-03T15:14:03;19.10;99.90
42905;DHT22;28550;51.228;4.528;2023-04-03T15:16:32;18.90;99.90
42905;DHT22;28550;51.228;4.528;2023-04-03T15:19:04;18.50;99.90
42905;DHT22;28550;51.228;4.528;2023-04-03T15:22:04;18.70;99.90
42905;DHT22;28550;51.228;4.528;2023-04-03T15:24:35;19.10;99.90
42905;DHT22;28550;51.228;4.528;2023-04-03T15:27:14;17.80;99.90
42905;DHT22;28550;51.228;4.528;2023-04-03T15:29:58;17.20;99.90
42905;DHT22;28550;51.228;4.528;2023-04-03T15:32:33;17.00;99.90
42905;DHT22;28550;51.228;4.528;2023-04-03T15:35:00;16.90;99.90
42905;DHT22;28550;51.228;4.528;2023-04-03T15:37:26;17.30;99.90
42905;DHT22;28550;51.228;4.528;2023-04-03T15:39:54;17.70;99.90
42905;DHT22;28550;51.228;4.528;2023-04-03T15:42:29;18.10;99.90
42905;DHT22;28550;51.228;4.528;2023-04-03T15:44:57;18.00;99.90
42905;DHT22;28550;51.228;4.528;2023-04-03T15:50:22;16.20;99.90
42905;DHT22;28550;51.228;4.528;2023-04-03T15:52:53;14.40;99.90
42905;DHT22;28550;51.228;4.528;2023-04-03T15:55:22;13.80;99.90
42905;DHT22;28550;51.228;4.528;2023-04-03T15:57:51;13.60;99.90
42905;DHT22;28550;51.228;4.528;2023-04-03T16:00:26;13.40;99.90
42905;DHT22;28550;51.228;4.528;2023-04-03T16:03:05;12.90;99.90
42905;DHT22;28550;51.228;4.528;2023-04-03T16:05:32;12.40;99.90
42905;DHT22;28550;51.228;4.528;2023-04-03T16:08:00;12.10;99.90
42905;DHT22;28550;51.228;4.528;2023-04-03T16:10:29;12.10;99.90
42905;DHT22;28550;51.228;4.528;2023-04-03T16:12:57;11.70;99.90
42905;DHT22;28550;51.228;4.528;2023-04-03T16:15:35;11.70;99.90
42905;DHT22;28550;51.228;4.528;2023-04-03T16:18:04;11.70;99.90
42905;DHT22;28550;51.228;4.528;2023-04-03T16:20:33;11.50;99.90
42905;DHT22;28550;51.228;4.528;2023-04-03T16:23:05;11.40;99.90
42905;DHT22;28550;51.228;4.528;2023-04-03T16:29:03;11.80;99.90
42905;DHT22;28550;51.228;4.528;2023-04-03T16:31:42;11.60;99.90
42905;DHT22;28550;51.228;4.528;2023-04-03T16:34:17;11.40;99.90
42905;DHT22;28550;51.228;4.528;2023-04-03T16:36:43;11.40;99.90
42905;DHT22;28550;51.228;4.528;2023-04-03T16:39:16;11.40;99.90
42905;DHT22;28550;51.228;4.528;2023-04-03T16:41:42;11.40;99.90
42905;DHT22;28550;51.228;4.528;2023-04-03T16:44:07;11.30;99.90
42905;DHT22;28550;51.228;4.528;2023-04-03T16:46:33;11.40;99.90
42905;DHT22;28550;51.228;4.528;2023-04-03T16:49:15;11.80;99.90
42905;DHT22;28550;51.228;4.528;2023-04-03T16:55:33;11.90;99.90
42905;DHT22;28550;51.228;4.528;2023-04-03T16:57:59;11.70;99.90
42905;DHT22;28550;51.228;4.528;2023-04-03T17:00:44;11.70;99.90
42905;DHT22;28550;51.228;4.528;2023-04-03T17:03:10;12.10;99.90
42905;DHT22;28550;51.228;4.528;2023-04-03T17:05:35;12.50;99.90
42905;DHT22;28550;51.228;4.528;2023-04-03T17:08:01;12.70;99.90
42905;DHT22;28550;51.228;4.528;2023-04-03T17:10:30;12.80;99.90
42905;DHT22;28550;51.228;4.528;2023-04-03T17:12:56;12.90;99.90
42905;DHT22;28550;51.228;4.528;2023-04-03T17:15:59;12.90;99.90
42905;DHT22;28550;51.228;4.528;2023-04-03T17:21:49;11.70;99.90
42905;DHT22;28550;51.228;4.528;2023-04-03T17:24:15;11.00;99.90
42905;DHT22;28550;51.228;4.528;2023-04-03T17:26:46;10.40;99.90
42905;DHT22;28550;51.228;4.528;2023-04-03T17:29:12;10.10;99.90
42905;DHT22;28550;51.228;4.528;2023-04-03T17:31:38;9.90;99.90
42905;DHT22;28550;51.228;4.528;2023-04-03T17:34:13;9.70;99.90
42905;DHT22;28550;51.228;4.528;2023-04-03T17:36:39;9.60;99.90
42905;DHT22;28550;51.228;4.528;2023-04-03T17:39:06;9.60;99.90
42905;DHT22;28550;51.228;4.528;2023-04-03T17:41:35;9.40;99.90
42905;DHT22;28550;51.228;4.528;2023-04-03T17:44:01;9.30;99.90
42905;DHT22;28550;51.228;4.528;2023-04-03T17:46:27;9.30;99.90
42905;DHT22;28550;51.228;4.528;2023-04-03T17:48:54;9.10;99.90
42905;DHT22;28550;51.228;4.528;2023-04-03T17:51:26;9.10;99.90
42905;DHT22;28550;51.228;4.528;2023-04-03T17:53:58;9.00;99.90
42905;DHT22;28550;51.228;4.528;2023-04-03T17:56:25;9.00;99.90
42905;DHT22;28550;51.228;4.528;2023-04-03T17:59:05;8.90;99.90
42905;DHT22;28550;51.228;4.528;2023-04-03T18:01:52;8.80;99.90
42905;DHT22;28550;51.228;4.528;2023-04-03T18:04:25;8.70;99.90
42905;DHT22;28550;51.228;4.528;2023-04-03T18:06:55;8.60;99.90
42905;DHT22;28550;51.228;4.528;2023-04-03T18:09:43;8.60;99.90
42905;DHT22;28550;51.228;4.528;2023-04-03T18:12:23;8.60;99.90
42905;DHT22;28550;51.228;4.528;2023-04-03T18:14:59;8.50;99.90
42905;DHT22;28550;51.228;4.528;2023-04-03T18:17:30;8.40;99.90
42905;DHT22;28550;51.228;4.528;2023-04-03T18:20:12;8.30;99.90
42905;DHT22;28550;51.228;4.528;2023-04-03T18:22:45;8.20;99.90
42905;DHT22;28550;51.228;4.528;2023-04-03T18:25:11;8.10;99.90
42905;DHT22;28550;51.228;4.528;2023-04-03T18:27:47;8.20;99.90
42905;DHT22;28550;51.228;4.528;2023-04-03T18:30:23;8.20;99.90
42905;DHT22;28550;51.228;4.528;2023-04-03T18:32:58;8.10;99.90
42905;DHT22;28550;51.228;4.528;2023-04-03T18:39:04;7.90;99.90
42905;DHT22;28550;51.228;4.528;2023-04-03T18:41:44;7.80;99.90
42905;DHT22;28550;51.228;4.528;2023-04-03T18:47:01;7.60;99.90
42905;DHT22;28550;51.228;4.528;2023-04-03T18:52:49;7.50;99.90
42905;DHT22;28550;51.228;4.528;2023-04-03T18:55:18;7.60;99.90
42905;DHT22;28550;51.228;4.528;2023-04-03T18:57:45;7.40;99.90
42905;DHT22;28550;51.228;4.528;2023-04-03T19:00:12;7.40;99.90
42905;DHT22;28550;51.228;4.528;2023-04-03T19:02:51;7.30;99.90
42905;DHT22;28550;51.228;4.528;2023-04-03T19:05:19;7.20;99.90
42905;DHT22;28550;51.228;4.528;2023-04-03T19:07:47;7.10;99.90
42905;DHT22;28550;51.228;4.528;2023-04-03T19:10:16;7.10;99.90
42905;DHT22;28550;51.228;4.528;2023-04-03T19:12:43;7.00;99.90
42905;DHT22;28550;51.228;4.528;2023-04-03T19:15:11;7.00;1.00
42905;DHT22;28550;51.228;4.528;2023-04-03T19:18:00;7.00;1.00
42905;DHT22;28550;51.228;4.528;2023-04-03T19:20:27;6.90;99.90
42905;DHT22;28550;51.228;4.528;2023-04-03T19:23:08;6.70;1.00
42905;DHT22;28550;51.228;4.528;2023-04-03T19:25:40;6.70;1.00
42905;DHT22;28550;51.228;4.528;2023-04-03T19:28:06;6.50;99.90
42905;DHT22;28550;51.228;4.528;2023-04-03T19:30:31;6.40;1.00
42905;DHT22;28550;51.228;4.528;2023-04-03T19:33:19;6.40;99.90
42905;DHT22;28550;51.228;4.528;2023-04-03T19:35:45;6.40;99.90
42905;DHT22;28550;51.228;4.528;2023-04-03T19:38:27;6.40;1.00
42905;DHT22;28550;51.228;4.528;2023-04-03T19:41:05;6.40;22.00
42905;DHT22;28550;51.228;4.528;2023-04-03T19:43:31;6.20;99.90
42905;DHT22;28550;51.228;4.528;2023-04-03T19:46:07;6.20;1.00
42905;DHT22;28550;51.228;4.528;2023-04-03T19:48:48;6.20;99.90
42905;DHT22;28550;51.228;4.528;2023-04-03T19:51:42;6.10;99.90
42905;DHT22;28550;51.228;4.528;2023-04-03T19:54:08;6.10;99.90
42905;DHT22;28550;51.228;4.528;2023-04-03T19:57:02;6.20;1.00
42905;DHT22;28550;51.228;4.528;2023-04-03T19:59:40;6.10;23.80
42905;DHT22;28550;51.228;4.528;2023-04-03T20:02:06;6.00;22.60
42905;DHT22;28550;51.228;4.528;2023-04-03T20:04:32;6.00;1.00
42905;DHT22;28550;51.228;4.528;2023-04-03T20:06:59;5.90;1.00
42905;DHT22;28550;51.228;4.528;2023-04-03T20:09:29;5.90;1.00
42905;DHT22;28550;51.228;4.528;2023-04-03T20:11:58;6.10;1.00
42905;DHT22;28550;51.228;4.528;2023-04-03T20:14:25;5.90;10.10
42905;DHT22;28550;51.228;4.528;2023-04-03T20:16:51;6.00;1.00
42905;DHT22;28550;51.228;4.528;2023-04-03T20:19:17;6.00;1.00
42905;DHT22;28550;51.228;4.528;2023-04-03T20:21:48;5.90;1.00
42905;DHT22;28550;51.228;4.528;2023-04-03T20:24:25;6.00;1.00
42905;DHT22;28550;51.228;4.528;2023-04-03T20:26:59;5.80;59.50
42905;DHT22;28550;51.228;4.528;2023-04-03T20:29:26;5.80;1.00
42905;DHT22;28550;51.228;4.528;2023-04-03T20:31:58;5.90;1.00
42905;DHT22;28550;51.228;4.528;2023-04-03T20:34:24;5.70;1.00
42905;DHT22;28550;51.228;4.528;2023-04-03T20:36:52;5.70;1.00
42905;DHT22;28550;51.228;4.528;2023-04-03T20:39:19;5.80;99.90
42905;DHT22;28550;51.228;4.528;2023-04-03T20:41:50;5.60;99.90
42905;DHT22;28550;51.228;4.528;2023-04-03T20:44:16;5.60;1.00
42905;DHT22;28550;51.228;4.528;2023-04-03T20:46:57;5.60;99.90
42905;DHT22;28550;51.228;4.528;2023-04-03T20:49:23;5.60;1.00
42905;DHT22;28550;51.228;4.528;2023-04-03T20:51:53;5.50;1.00
42905;DHT22;28550;51.228;4.528;2023-04-03T20:54:52;5.40;81.20
42905;DHT22;28550;51.228;4.528;2023-04-03T20:57:43;5.50;1.00
42905;DHT22;28550;51.228;4.528;2023-04-03T21:00:57;5.50;99.90
42905;DHT22;28550;51.228;4.528;2023-04-03T21:21:32;5.30;1.00
42905;DHT22;28550;51.228;4.528;2023-04-03T21:24:02;5.30;1.00
42905;DHT22;28550;51.228;4.528;2023-04-03T21:26:34;5.20;99.90
42905;DHT22;28550;51.228;4.528;2023-04-03T21:29:09;5.20;99.90
42905;DHT22;28550;51.228;4.528;2023-04-03T21:31:57;5.30;1.00
42905;DHT22;28550;51.228;4.528;2023-04-03T21:34:30;5.20;1.00
42905;DHT22;28550;51.228;4.528;2023-04-03T21:37:03;5.10;1.00
42905;DHT22;28550;51.228;4.528;2023-04-03T21:39:30;5.10;1.00
42905;DHT22;28550;51.228;4.528;2023-04-03T21:41:56;5.10;1.00
42905;DHT22;28550;51.228;4.528;2023-04-03T21:44:31;5.00;1.00
42905;DHT22;28550;51.228;4.528;2023-04-03T21:47:18;4.90;99.90